Time;durP1;ratioP1;P1;durP2;ratioP2;P2;SDS_P1;SDS_P2;PMS_P1;PMS_P2;Temp;Humidity;BMP_temperature;BMP_pressure;BME280_temperature;BME280_humidity;BME280_pressure;Samples;Min_cycle;Max_cycle;Signal;HPM_P1;HPM_P2
2023/12/13 00:01:34;;;;;;;3.70;2.30;;;;;;;;;;5047524;28;39991;-73
2023/12/13 00:04:02;;;;;;;3.90;2.30;;;;;;;;;;5056571;28;42343;-74
2023/12/13 00:06:31;;;;;;;5.18;2.85;;;;;;;;;;5056695;28;41699;-73
2023/12/13 00:08:59;;;;;;;2.90;2.10;;;;;;;;;;5055589;28;41394;-73
2023/12/13 00:11:27;;;;;;;4.13;2.30;;;;;;;;;;5052738;28;41280;-74
2023/12/13 00:13:55;;;;;;;4.75;2.20;;;;;;;;;;5059646;28;41873;-73
2023/12/13 00:16:23;;;;;;;3.72;2.55;;;;;;;;;;5069752;28;41087;-73
2023/12/13 00:18:51;;;;;;;5.10;2.17;;;;;;;;;;5050327;28;41670;-73
2023/12/13 00:21:19;;;;;;;4.47;2.22;;;;;;;;;;5067109;28;41399;-74
2023/12/13 00:23:49;;;;;;;2.45;1.92;;;;;;;;;;5047165;28;40872;-73
2023/12/13 00:26:16;;;;;;;3.58;2.65;;;;;;;;;;5066814;28;43093;-73
2023/12/13 00:28:44;;;;;;;3.03;1.95;;;;;;;;;;5061982;28;40179;-73
2023/12/13 00:31:12;;;;;;;2.60;1.70;;;;;;;;;;5066074;28;41217;-73
2023/12/13 00:33:41;;;;;;;3.10;2.13;;;;;;;;;;5073745;28;41792;-73
2023/12/13 00:36:09;;;;;;;2.92;2.13;;;;;;;;;;5056186;28;39702;-73
2023/12/13 00:38:37;;;;;;;3.47;2.13;;;;;;;;;;5066996;28;42633;-74
2023/12/13 00:41:06;;;;;;;3.28;2.15;;;;;;;;;;5049829;28;41902;-74
2023/12/13 00:43:34;;;;;;;3.88;2.55;;;;;;;;;;5059952;28;41212;-73
2023/12/13 00:46:02;;;;;;;2.72;2.22;;;;;;;;;;5062735;28;42007;-74
2023/12/13 00:48:30;;;;;;;3.28;2.22;;;;;;;;;;5052738;28;40447;-73
2023/12/13 00:51:00;;;;;;;3.00;2.10;;;;;;;;;;5066212;28;42537;-74
2023/12/13 00:53:28;;;;;;;2.95;2.22;;;;;;;;;;5060666;28;41821;-73
2023/12/13 00:55:56;;;;;;;3.47;2.22;;;;;;;;;;5058317;28;41450;-73
2023/12/13 00:58:25;;;;;;;2.90;2.50;;;;;;;;;;5067101;28;41688;-73
2023/12/13 01:00:53;;;;;;;3.35;2.35;;;;;;;;;;5069278;28;42144;-74
2023/12/13 01:03:21;;;;;;;3.05;2.20;;;;;;;;;;5056129;28;40344;-74
2023/12/13 01:05:49;;;;;;;3.08;1.80;;;;;;;;;;5063817;28;42957;-74
2023/12/13 01:08:17;;;;;;;2.72;2.13;;;;;;;;;;5052549;28;41350;-73
2023/12/13 01:10:45;;;;;;;5.20;2.17;;;;;;;;;;5064567;28;41352;-73
2023/12/13 01:13:13;;;;;;;3.15;2.20;;;;;;;;;;5082697;28;43105;-73
2023/12/13 01:15:42;;;;;;;3.05;2.08;;;;;;;;;;5058347;28;39938;-73
2023/12/13 01:18:10;;;;;;;3.75;2.00;;;;;;;;;;5061677;28;41896;-73
2023/12/13 01:20:39;;;;;;;2.67;1.85;;;;;;;;;;5061228;28;42082;-73
2023/12/13 01:23:07;;;;;;;4.85;2.20;;;;;;;;;;5070014;28;40988;-73
2023/12/13 01:25:35;;;;;;;2.88;2.25;;;;;;;;;;5067785;28;42105;-73
2023/12/13 01:28:03;;;;;;;2.25;1.83;;;;;;;;;;5064288;28;41717;-73
2023/12/13 01:30:31;;;;;;;3.67;2.22;;;;;;;;;;5065703;28;41457;-73
2023/12/13 01:33:00;;;;;;;2.97;1.95;;;;;;;;;;5073913;28;43100;-73
2023/12/13 01:35:29;;;;;;;2.28;1.77;;;;;;;;;;5057681;28;40194;-74
2023/12/13 01:37:57;;;;;;;2.75;2.22;;;;;;;;;;5044335;28;39796;-74
2023/12/13 01:40:25;;;;;;;3.25;1.92;;;;;;;;;;5062802;28;41852;-73
2023/12/13 01:42:53;;;;;;;3.25;1.98;;;;;;;;;;5062196;28;40041;-73
2023/12/13 01:45:21;;;;;;;3.55;1.70;;;;;;;;;;5064605;28;40882;-73
2023/12/13 01:47:49;;;;;;;2.00;1.80;;;;;;;;;;5066522;28;40035;-74
2023/12/13 01:50:18;;;;;;;2.88;1.90;;;;;;;;;;5067349;28;41899;-74
2023/12/13 01:52:46;;;;;;;2.80;1.60;;;;;;;;;;5059296;28;42122;-73
2023/12/13 01:55:14;;;;;;;3.97;1.70;;;;;;;;;;5068817;28;42253;-73
2023/12/13 01:57:42;;;;;;;3.38;1.70;;;;;;;;;;5066016;28;41585;-74
2023/12/13 02:00:11;;;;;;;2.95;2.28;;;;;;;;;;5067033;28;43259;-73
2023/12/13 02:02:40;;;;;;;3.00;1.83;;;;;;;;;;5067500;28;40177;-74
2023/12/13 02:05:08;;;;;;;3.40;1.98;;;;;;;;;;5031805;28;1060063;-73
2023/12/13 02:07:38;;;;;;;3.25;1.75;;;;;;;;;;5054009;28;42111;-73
2023/12/13 02:10:07;;;;;;;2.55;1.70;;;;;;;;;;5062658;28;41647;-73
2023/12/13 02:12:35;;;;;;;2.80;1.60;;;;;;;;;;5067513;28;43191;-73
2023/12/13 02:15:04;;;;;;;2.65;1.75;;;;;;;;;;5080932;28;40164;-73
2023/12/13 02:17:32;;;;;;;2.00;1.70;;;;;;;;;;5066945;28;41614;-73
2023/12/13 02:20:01;;;;;;;2.53;1.77;;;;;;;;;;5040592;28;40598;-73
2023/12/13 02:22:30;;;;;;;4.28;2.03;;;;;;;;;;5069915;28;40493;-73
2023/12/13 02:24:58;;;;;;;3.47;1.90;;;;;;;;;;5067402;28;42626;-73
2023/12/13 02:27:29;;;;;;;2.42;1.50;;;;;;;;;;5075189;28;41827;-74
2023/12/13 02:29:58;;;;;;;2.53;1.67;;;;;;;;;;5059454;28;39385;-73
2023/12/13 02:32:26;;;;;;;2.78;1.85;;;;;;;;;;5068048;28;42066;-73
2023/12/13 02:34:54;;;;;;;3.65;2.20;;;;;;;;;;5068212;28;41380;-73
2023/12/13 02:37:23;;;;;;;1.63;1.40;;;;;;;;;;5078922;28;42382;-73
2023/12/13 02:39:53;;;;;;;1.80;1.35;;;;;;;;;;5067831;28;42682;-73
2023/12/13 02:42:21;;;;;;;2.55;1.88;;;;;;;;;;5079542;28;40532;-73
2023/12/13 02:44:49;;;;;;;3.58;1.80;;;;;;;;;;5061932;28;44534;-73
2023/12/13 02:47:17;;;;;;;4.07;1.40;;;;;;;;;;5066233;28;43186;-73
2023/12/13 02:49:45;;;;;;;3.03;1.75;;;;;;;;;;5050281;28;41067;-73
2023/12/13 02:52:13;;;;;;;1.92;1.67;;;;;;;;;;5065537;28;42504;-73
2023/12/13 02:54:41;;;;;;;2.67;1.60;;;;;;;;;;5053637;28;41168;-73
2023/12/13 02:57:10;;;;;;;2.05;1.48;;;;;;;;;;5042342;28;41649;-74
2023/12/13 02:59:38;;;;;;;3.33;1.55;;;;;;;;;;5061211;28;41982;-73
2023/12/13 03:02:06;;;;;;;2.05;1.40;;;;;;;;;;5064110;28;41249;-73
2023/12/13 03:04:34;;;;;;;2.65;1.50;;;;;;;;;;5068034;28;41806;-73
2023/12/13 03:07:04;;;;;;;3.42;1.77;;;;;;;;;;5069412;28;42163;-73
2023/12/13 03:09:32;;;;;;;4.25;1.60;;;;;;;;;;5074254;28;40911;-73
2023/12/13 03:12:00;;;;;;;1.98;1.50;;;;;;;;;;5048676;28;39407;-73
2023/12/13 03:14:29;;;;;;;2.10;1.27;;;;;;;;;;5067769;28;35135;-73
2023/12/13 03:16:57;;;;;;;2.75;1.50;;;;;;;;;;5062592;28;42158;-73
2023/12/13 03:19:25;;;;;;;2.58;1.30;;;;;;;;;;5039911;28;40730;-73
2023/12/13 03:21:53;;;;;;;1.67;1.42;;;;;;;;;;5067591;28;40889;-73
2023/12/13 03:24:21;;;;;;;3.20;1.40;;;;;;;;;;5067735;28;41686;-73
2023/12/13 03:26:49;;;;;;;1.52;1.30;;;;;;;;;;5048327;28;41933;-73
2023/12/13 03:29:17;;;;;;;1.63;1.13;;;;;;;;;;5066456;28;40270;-73
2023/12/13 03:31:47;;;;;;;1.77;1.33;;;;;;;;;;5048814;28;40540;-73
2023/12/13 03:34:15;;;;;;;2.33;1.40;;;;;;;;;;5061909;28;42803;-73
2023/12/13 03:36:43;;;;;;;1.80;1.15;;;;;;;;;;5055590;28;41717;-73
2023/12/13 03:39:11;;;;;;;2.78;1.65;;;;;;;;;;5066939;28;42068;-73
2023/12/13 03:41:39;;;;;;;2.17;1.42;;;;;;;;;;5063433;28;40352;-73
2023/12/13 03:44:07;;;;;;;4.00;1.67;;;;;;;;;;5047759;28;40866;-73
2023/12/13 03:46:35;;;;;;;2.92;1.58;;;;;;;;;;5061102;28;42684;-73
2023/12/13 03:49:09;;;;;;;1.75;1.20;;;;;;;;;;5050279;28;38719;-73
2023/12/13 03:51:37;;;;;;;2.03;1.30;;;;;;;;;;5061730;28;41785;-73
2023/12/13 03:54:05;;;;;;;2.33;1.40;;;;;;;;;;5054670;28;41857;-73
2023/12/13 03:56:33;;;;;;;2.85;1.60;;;;;;;;;;5066116;28;40110;-73
2023/12/13 03:59:01;;;;;;;1.70;0.90;;;;;;;;;;5071802;28;42353;-73
2023/12/13 04:01:28;;;;;;;4.60;1.67;;;;;;;;;;5057320;28;41381;-74
2023/12/13 04:03:56;;;;;;;2.25;1.10;;;;;;;;;;5036939;28;39834;-73
2023/12/13 04:06:26;;;;;;;1.65;1.10;;;;;;;;;;5065161;28;42243;-73
2023/12/13 04:08:54;;;;;;;2.60;1.40;;;;;;;;;;5068908;28;41002;-73
2023/12/13 04:11:22;;;;;;;2.25;1.23;;;;;;;;;;5075739;28;42553;-73
2023/12/13 04:13:50;;;;;;;1.90;1.17;;;;;;;;;;5077211;28;42451;-73
2023/12/13 04:16:18;;;;;;;1.60;1.08;;;;;;;;;;5071014;28;40873;-73
2023/12/13 04:18:46;;;;;;;3.60;1.30;;;;;;;;;;5063794;28;42410;-73
2023/12/13 04:21:14;;;;;;;1.80;1.10;;;;;;;;;;5067190;28;41366;-73
2023/12/13 04:23:43;;;;;;;2.47;1.17;;;;;;;;;;5053189;28;41390;-73
2023/12/13 04:26:11;;;;;;;2.03;1.13;;;;;;;;;;5055297;28;41657;-73
2023/12/13 04:28:39;;;;;;;2.10;1.25;;;;;;;;;;5054478;28;41479;-73
2023/12/13 04:31:07;;;;;;;2.50;1.38;;;;;;;;;;5055710;28;42614;-73
2023/12/13 04:33:35;;;;;;;2.50;1.33;;;;;;;;;;5064958;28;42267;-73
2023/12/13 04:36:03;;;;;;;3.13;1.40;;;;;;;;;;5066682;28;40986;-73
2023/12/13 04:38:33;;;;;;;2.17;1.05;;;;;;;;;;5048294;28;39868;-73
2023/12/13 04:41:03;;;;;;;2.25;1.17;;;;;;;;;;5034680;28;41556;-74
2023/12/13 04:43:31;;;;;;;2.28;1.48;;;;;;;;;;5067367;28;41588;-73
2023/12/13 04:45:59;;;;;;;1.83;1.02;;;;;;;;;;5079557;28;41943;-73
2023/12/13 04:48:27;;;;;;;1.98;1.38;;;;;;;;;;5069808;28;42352;-73
2023/12/13 04:50:55;;;;;;;2.22;1.15;;;;;;;;;;5066592;28;42716;-73
2023/12/13 04:53:23;;;;;;;2.78;0.93;;;;;;;;;;5065932;28;41552;-73
2023/12/13 04:55:51;;;;;;;3.10;1.20;;;;;;;;;;5076205;28;39984;-73
2023/12/13 04:58:20;;;;;;;1.95;1.10;;;;;;;;;;5071508;28;41396;-73
2023/12/13 05:00:48;;;;;;;2.88;1.10;;;;;;;;;;5081988;28;43060;-73
2023/12/13 05:03:16;;;;;;;1.58;1.08;;;;;;;;;;5049416;28;39710;-73
2023/12/13 05:05:44;;;;;;;1.88;1.15;;;;;;;;;;5065583;28;41864;-73
2023/12/13 05:08:12;;;;;;;2.08;1.10;;;;;;;;;;5074188;28;40274;-73
2023/12/13 05:10:43;;;;;;;3.05;1.50;;;;;;;;;;5080813;28;43176;-73
2023/12/13 05:13:11;;;;;;;3.08;1.48;;;;;;;;;;5049904;28;42269;-73
2023/12/13 05:15:40;;;;;;;2.20;1.00;;;;;;;;;;5066262;28;39724;-73
2023/12/13 05:18:09;;;;;;;0.95;0.90;;;;;;;;;;5070932;28;41681;-73
2023/12/13 05:20:37;;;;;;;1.58;1.00;;;;;;;;;;5056556;28;42313;-73
2023/12/13 05:23:05;;;;;;;1.83;1.08;;;;;;;;;;5065797;28;40418;-74
2023/12/13 05:25:34;;;;;;;1.30;0.90;;;;;;;;;;5047908;28;40365;-73
2023/12/13 05:28:02;;;;;;;2.60;1.30;;;;;;;;;;5063389;28;40025;-73
2023/12/13 05:30:30;;;;;;;2.00;1.15;;;;;;;;;;5047432;28;41400;-74
2023/12/13 05:33:00;;;;;;;1.42;0.90;;;;;;;;;;5065890;28;43568;-73
2023/12/13 05:35:28;;;;;;;1.38;0.93;;;;;;;;;;5066953;28;40205;-73
2023/12/13 05:37:56;;;;;;;1.65;1.00;;;;;;;;;;5066247;28;42793;-73
2023/12/13 05:40:24;;;;;;;1.63;1.17;;;;;;;;;;5066100;28;42758;-73
2023/12/13 05:42:52;;;;;;;1.45;0.98;;;;;;;;;;5065744;28;41393;-73
2023/12/13 05:45:19;;;;;;;1.13;0.90;;;;;;;;;;5067421;28;42111;-73
2023/12/13 05:47:47;;;;;;;1.38;1.17;;;;;;;;;;5069782;28;40399;-74
2023/12/13 05:50:17;;;;;;;1.88;0.98;;;;;;;;;;5069852;28;42282;-73
2023/12/13 05:52:45;;;;;;;1.30;1.10;;;;;;;;;;5070310;28;42167;-73
2023/12/13 05:55:13;;;;;;;1.90;1.00;;;;;;;;;;5064786;28;40319;-73
2023/12/13 05:57:41;;;;;;;1.20;1.02;;;;;;;;;;5066672;28;41306;-73
2023/12/13 06:00:09;;;;;;;2.15;1.05;;;;;;;;;;5046630;28;40656;-74
2023/12/13 06:02:38;;;;;;;3.35;1.00;;;;;;;;;;5068577;28;42500;-73
2023/12/13 06:05:22;;;;;;;1.00;0.85;;;;;;;;;;5062957;28;41010;-73
2023/12/13 06:07:51;;;;;;;2.05;1.00;;;;;;;;;;5067182;28;42392;-73
2023/12/13 06:10:19;;;;;;;2.17;1.10;;;;;;;;;;5068097;28;41663;-73
2023/12/13 06:12:50;;;;;;;1.13;0.95;;;;;;;;;;5068942;28;41926;-73
2023/12/13 06:15:18;;;;;;;1.88;0.90;;;;;;;;;;5063433;28;39165;-73
2023/12/13 06:17:47;;;;;;;1.85;1.08;;;;;;;;;;5057495;28;42093;-73
2023/12/13 06:20:15;;;;;;;1.48;0.90;;;;;;;;;;5065808;28;41962;-73
2023/12/13 06:22:44;;;;;;;2.25;1.25;;;;;;;;;;5042602;28;39441;-72
2023/12/13 06:25:12;;;;;;;1.70;1.20;;;;;;;;;;5055999;28;42240;-73
2023/12/13 06:27:40;;;;;;;1.98;1.27;;;;;;;;;;5062642;28;42085;-73
2023/12/13 06:30:10;;;;;;;2.80;1.35;;;;;;;;;;5068240;28;39684;-73
2023/12/13 06:32:38;;;;;;;2.08;1.08;;;;;;;;;;5054099;28;42522;-73
2023/12/13 06:35:07;;;;;;;3.28;1.08;;;;;;;;;;5057391;28;40208;-73
2023/12/13 06:37:35;;;;;;;1.00;0.90;;;;;;;;;;5067081;28;41739;-73
2023/12/13 06:40:05;;;;;;;2.75;1.20;;;;;;;;;;5056419;28;41712;-73
2023/12/13 06:42:33;;;;;;;2.53;1.50;;;;;;;;;;5056667;28;40919;-73
2023/12/13 06:45:01;;;;;;;2.45;1.33;;;;;;;;;;5062435;28;41356;-73
2023/12/13 06:47:30;;;;;;;2.08;1.20;;;;;;;;;;5067277;28;41496;-73
2023/12/13 06:49:59;;;;;;;2.20;1.17;;;;;;;;;;5066161;28;39881;-72
2023/12/13 06:52:27;;;;;;;3.47;1.30;;;;;;;;;;5061395;28;42157;-72
2023/12/13 06:54:55;;;;;;;2.20;1.52;;;;;;;;;;5066861;28;40850;-72
2023/12/13 06:57:24;;;;;;;2.95;1.30;;;;;;;;;;5058377;28;42577;-72
2023/12/13 06:59:52;;;;;;;2.55;1.40;;;;;;;;;;5068690;28;41821;-73
2023/12/13 07:02:20;;;;;;;2.25;1.17;;;;;;;;;;5048279;28;38651;-73
2023/12/13 07:04:48;;;;;;;2.45;1.17;;;;;;;;;;5061059;28;41237;-73
2023/12/13 07:07:16;;;;;;;1.67;1.23;;;;;;;;;;5058311;28;42240;-71
2023/12/13 07:09:45;;;;;;;3.17;1.38;;;;;;;;;;5053605;28;40448;-71
2023/12/13 07:12:13;;;;;;;1.27;1.02;;;;;;;;;;5057056;28;41678;-72
2023/12/13 07:14:42;;;;;;;2.63;1.85;;;;;;;;;;5044615;28;40373;-69
2023/12/13 07:17:10;;;;;;;5.57;1.42;;;;;;;;;;5041082;28;41649;-69
2023/12/13 07:19:38;;;;;;;3.15;1.80;;;;;;;;;;5064113;28;42022;-69
2023/12/13 07:22:06;;;;;;;9.18;1.70;;;;;;;;;;5061122;28;40456;-68
2023/12/13 07:24:34;;;;;;;3.97;1.67;;;;;;;;;;5067856;28;41560;-69
2023/12/13 07:27:03;;;;;;;2.25;2.05;;;;;;;;;;5072886;28;41709;-69
2023/12/13 07:29:33;;;;;;;3.42;2.17;;;;;;;;;;5060716;28;40130;-69
2023/12/13 07:32:04;;;;;;;3.35;1.67;;;;;;;;;;5062876;28;41598;-68
2023/12/13 07:34:32;;;;;;;2.78;1.70;;;;;;;;;;5065268;28;41991;-69
2023/12/13 07:37:00;;;;;;;3.92;1.40;;;;;;;;;;5066378;28;41324;-69
2023/12/13 07:39:30;;;;;;;2.25;1.77;;;;;;;;;;5066450;28;43181;-70
2023/12/13 07:41:58;;;;;;;7.78;1.50;;;;;;;;;;5066482;28;41860;-70
2023/12/13 07:44:28;;;;;;;2.35;1.35;;;;;;;;;;5061946;28;42214;-69
2023/12/13 07:46:56;;;;;;;3.40;1.77;;;;;;;;;;5064971;28;42064;-69
2023/12/13 07:49:25;;;;;;;3.00;1.98;;;;;;;;;;5067152;28;40284;-69
2023/12/13 07:51:54;;;;;;;4.68;2.17;;;;;;;;;;5063885;28;41059;-69
2023/12/13 07:54:22;;;;;;;3.63;1.60;;;;;;;;;;5064431;28;41792;-70
2023/12/13 07:56:52;;;;;;;3.35;1.48;;;;;;;;;;5064188;28;41386;-69
2023/12/13 07:59:20;;;;;;;4.32;2.50;;;;;;;;;;5059445;28;42301;-69
2023/12/13 08:01:49;;;;;;;2.13;1.63;;;;;;;;;;5058812;28;40403;-69
2023/12/13 08:04:17;;;;;;;2.20;1.50;;;;;;;;;;5065371;28;42562;-69
2023/12/13 08:06:46;;;;;;;4.07;1.42;;;;;;;;;;5060677;28;41987;-70
2023/12/13 08:09:15;;;;;;;3.88;2.15;;;;;;;;;;5062621;28;40214;-69
2023/12/13 08:11:44;;;;;;;2.92;1.75;;;;;;;;;;5049646;28;41650;-69
2023/12/13 08:14:11;;;;;;;1.90;1.48;;;;;;;;;;5052719;28;42129;-69
2023/12/13 08:16:39;;;;;;;3.70;2.17;;;;;;;;;;5056792;28;40359;-69
2023/12/13 08:19:07;;;;;;;3.45;2.22;;;;;;;;;;5050697;28;42373;-69
2023/12/13 08:21:40;;;;;;;2.83;1.92;;;;;;;;;;5046347;28;40271;-70
2023/12/13 08:24:10;;;;;;;3.13;1.80;;;;;;;;;;5027342;28;40344;-70
2023/12/13 08:26:38;;;;;;;5.53;1.52;;;;;;;;;;5049781;28;42999;-70
2023/12/13 08:29:06;;;;;;;5.45;1.83;;;;;;;;;;5057554;28;39702;-69
2023/12/13 08:31:35;;;;;;;4.97;2.05;;;;;;;;;;5059925;28;41426;-68
2023/12/13 08:34:03;;;;;;;5.35;2.38;;;;;;;;;;5045427;28;41188;-69
2023/12/13 08:36:31;;;;;;;4.75;2.15;;;;;;;;;;5057564;28;41093;-68
2023/12/13 08:39:00;;;;;;;4.80;1.75;;;;;;;;;;5060133;28;41236;-68
2023/12/13 08:41:29;;;;;;;6.07;1.83;;;;;;;;;;5056781;28;42609;-69
2023/12/13 08:43:57;;;;;;;8.70;2.60;;;;;;;;;;5062876;28;41142;-69
2023/12/13 08:46:25;;;;;;;6.05;2.17;;;;;;;;;;5059772;28;41699;-70
2023/12/13 08:48:53;;;;;;;9.38;2.10;;;;;;;;;;5046250;28;39531;-70
2023/12/13 08:51:21;;;;;;;5.03;1.90;;;;;;;;;;5066401;28;40973;-70
2023/12/13 08:53:54;;;;;;;4.90;2.00;;;;;;;;;;5065924;28;42286;-69
2023/12/13 08:56:22;;;;;;;6.93;2.60;;;;;;;;;;5059411;28;41337;-69
2023/12/13 08:58:51;;;;;;;4.05;2.15;;;;;;;;;;5063968;28;41082;-69
2023/12/13 09:01:19;;;;;;;4.55;1.98;;;;;;;;;;5066997;28;42192;-70
2023/12/13 09:03:52;;;;;;;4.28;2.47;;;;;;;;;;5057695;28;40355;-70
2023/12/13 09:06:20;;;;;;;8.02;2.38;;;;;;;;;;5063257;28;42395;-72
2023/12/13 09:08:48;;;;;;;4.88;2.25;;;;;;;;;;5053466;28;41317;-69
2023/12/13 09:11:16;;;;;;;5.95;2.53;;;;;;;;;;5052281;28;42780;-69
2023/12/13 09:13:44;;;;;;;3.60;1.90;;;;;;;;;;5064439;28;42143;-72
2023/12/13 09:16:14;;;;;;;11.02;2.38;;;;;;;;;;5063536;28;41351;-72
2023/12/13 09:18:43;;;;;;;6.60;2.55;;;;;;;;;;5063003;28;42383;-69
2023/12/13 09:21:11;;;;;;;4.82;2.33;;;;;;;;;;5064992;28;41919;-69
2023/12/13 09:23:40;;;;;;;3.17;2.13;;;;;;;;;;5063872;28;41294;-66
2023/12/13 09:26:13;;;;;;;3.83;1.90;;;;;;;;;;5069632;28;41554;-68
2023/12/13 09:28:41;;;;;;;3.00;1.92;;;;;;;;;;5043563;28;39228;-70
2023/12/13 09:31:10;;;;;;;18.52;2.28;;;;;;;;;;5064262;28;42152;-68
2023/12/13 09:33:39;;;;;;;16.27;2.58;;;;;;;;;;5065113;28;41760;-68
2023/12/13 09:36:08;;;;;;;5.10;2.42;;;;;;;;;;5069921;28;39997;-67
2023/12/13 09:38:36;;;;;;;5.60;2.30;;;;;;;;;;5064329;28;41364;-68
2023/12/13 09:41:05;;;;;;;11.88;2.33;;;;;;;;;;5074487;28;41751;-67
2023/12/13 09:43:33;;;;;;;7.32;3.75;;;;;;;;;;5064540;28;41064;-67
2023/12/13 09:46:05;;;;;;;3.72;2.05;;;;;;;;;;5065870;28;42234;-69
2023/12/13 09:48:34;;;;;;;6.57;2.40;;;;;;;;;;5058328;28;40712;-67
2023/12/13 09:51:04;;;;;;;5.22;2.08;;;;;;;;;;5056711;28;41505;-68
2023/12/13 09:53:32;;;;;;;9.77;2.10;;;;;;;;;;5066252;28;41940;-68
2023/12/13 09:56:00;;;;;;;4.03;2.30;;;;;;;;;;5070662;28;40089;-68
2023/12/13 09:58:28;;;;;;;4.55;2.25;;;;;;;;;;5066079;28;41704;-67
2023/12/13 10:00:57;;;;;;;5.40;2.35;;;;;;;;;;5069749;28;42550;-67
2023/12/13 10:03:25;;;;;;;3.60;2.17;;;;;;;;;;5068205;28;40579;-68
2023/12/13 10:05:53;;;;;;;4.97;2.50;;;;;;;;;;5070374;28;41757;-68
2023/12/13 10:08:22;;;;;;;6.65;2.20;;;;;;;;;;5062288;28;41985;-71
2023/12/13 10:10:50;;;;;;;4.22;1.70;;;;;;;;;;5054817;28;41402;-68
2023/12/13 10:13:18;;;;;;;5.15;1.85;;;;;;;;;;5068724;28;41965;-68
2023/12/13 10:15:46;;;;;;;2.80;1.80;;;;;;;;;;5068106;28;40487;-69
2023/12/13 10:18:14;;;;;;;5.05;1.85;;;;;;;;;;5070652;28;41339;-68
2023/12/13 10:20:42;;;;;;;4.75;1.65;;;;;;;;;;5055699;28;40869;-68
2023/12/13 10:23:09;;;;;;;4.00;1.85;;;;;;;;;;5083576;28;39986;-68
2023/12/13 10:25:39;;;;;;;4.10;2.10;;;;;;;;;;5067139;28;41286;-68
2023/12/13 10:28:07;;;;;;;4.70;2.40;;;;;;;;;;5062018;28;41991;-68
2023/12/13 10:30:35;;;;;;;3.88;1.88;;;;;;;;;;5052015;28;41285;-68
2023/12/13 10:33:04;;;;;;;5.85;2.10;;;;;;;;;;5064255;28;42143;-67
2023/12/13 10:35:32;;;;;;;3.47;1.42;;;;;;;;;;5065116;28;41181;-68
2023/12/13 10:38:00;;;;;;;7.45;1.75;;;;;;;;;;5072605;28;41918;-67
2023/12/13 10:40:28;;;;;;;5.60;2.30;;;;;;;;;;5044773;28;40580;-67
2023/12/13 10:42:57;;;;;;;4.70;2.03;;;;;;;;;;5063334;28;40255;-67
2023/12/13 10:45:25;;;;;;;3.05;1.85;;;;;;;;;;5067976;28;42136;-67
2023/12/13 10:47:56;;;;;;;7.25;1.55;;;;;;;;;;5061901;28;41728;-68
2023/12/13 10:50:25;;;;;;;3.95;2.15;;;;;;;;;;5062643;28;40016;-67
2023/12/13 10:52:52;;;;;;;3.75;2.00;;;;;;;;;;5067739;28;42615;-68
2023/12/13 10:55:20;;;;;;;11.32;2.40;;;;;;;;;;5068817;28;39897;-69
2023/12/13 10:57:48;;;;;;;6.85;2.78;;;;;;;;;;5053418;28;42335;-69
2023/12/13 11:00:19;;;;;;;4.35;1.98;;;;;;;;;;5051878;28;41674;-69
2023/12/13 11:02:49;;;;;;;3.60;2.00;;;;;;;;;;5068334;28;40108;-69
2023/12/13 11:05:17;;;;;;;5.20;2.28;;;;;;;;;;5067373;28;41372;-70
2023/12/13 11:07:45;;;;;;;3.97;1.75;;;;;;;;;;5079798;28;40428;-69
2023/12/13 11:10:14;;;;;;;3.45;1.67;;;;;;;;;;5073481;28;41224;-73
2023/12/13 11:12:49;;;;;;;6.90;1.98;;;;;;;;;;5063007;28;41748;-69
2023/12/13 11:15:18;;;;;;;7.25;1.88;;;;;;;;;;5060014;28;42578;-68
2023/12/13 11:17:48;;;;;;;3.88;1.90;;;;;;;;;;5062676;28;39749;-73
2023/12/13 11:20:17;;;;;;;5.15;1.73;;;;;;;;;;5059397;28;42059;-68
2023/12/13 11:22:48;;;;;;;3.28;1.80;;;;;;;;;;5064598;28;40316;-68
2023/12/13 11:25:17;;;;;;;4.07;1.75;;;;;;;;;;5066565;28;42603;-68
2023/12/13 11:27:50;;;;;;;5.50;2.00;;;;;;;;;;5050734;28;42699;-68
2023/12/13 11:30:21;;;;;;;4.80;1.90;;;;;;;;;;5063825;28;40604;-69
2023/12/13 11:32:49;;;;;;;3.38;2.00;;;;;;;;;;5054508;28;41042;-69
2023/12/13 11:35:18;;;;;;;3.97;2.15;;;;;;;;;;5058595;28;42388;-71
2023/12/13 11:37:50;;;;;;;6.75;2.28;;;;;;;;;;5066944;28;38926;-70
2023/12/13 11:40:18;;;;;;;3.67;2.05;;;;;;;;;;5072789;28;42851;-70
2023/12/13 11:42:46;;;;;;;4.78;1.90;;;;;;;;;;5047166;28;40243;-71
2023/12/13 11:45:14;;;;;;;4.78;1.60;;;;;;;;;;5056699;28;41312;-71
2023/12/13 11:47:46;;;;;;;5.85;1.92;;;;;;;;;;5065391;28;42382;-70
2023/12/13 11:50:16;;;;;;;4.30;1.80;;;;;;;;;;5052506;28;43460;-68
2023/12/13 11:52:44;;;;;;;5.63;2.00;;;;;;;;;;5042032;28;40007;-69
2023/12/13 11:55:12;;;;;;;4.72;2.05;;;;;;;;;;5062259;28;42116;-70
2023/12/13 11:57:46;;;;;;;4.78;2.15;;;;;;;;;;5068215;28;40325;-71
2023/12/13 12:00:17;;;;;;;4.57;1.70;;;;;;;;;;5066125;28;42698;-71
2023/12/13 12:02:46;;;;;;;3.90;1.83;;;;;;;;;;5071033;28;41333;-73
2023/12/13 12:05:14;;;;;;;4.35;2.10;;;;;;;;;;5051481;28;41056;-71
2023/12/13 12:07:42;;;;;;;3.83;1.90;;;;;;;;;;5062163;28;41821;-71
2023/12/13 12:10:10;;;;;;;5.05;2.05;;;;;;;;;;5051296;28;40918;-69
2023/12/13 12:12:38;;;;;;;5.15;1.85;;;;;;;;;;5065480;28;41251;-70
2023/12/13 12:15:07;;;;;;;5.50;2.10;;;;;;;;;;5059570;28;43452;-70
2023/12/13 12:17:35;;;;;;;6.00;4.95;;;;;;;;;;5059740;28;40632;-70
2023/12/13 12:20:05;;;;;;;4.40;2.47;;;;;;;;;;5060688;28;41094;-71
2023/12/13 12:22:36;;;;;;;8.35;7.55;;;;;;;;;;5058357;28;41705;-70
2023/12/13 12:25:04;;;;;;;8.00;5.15;;;;;;;;;;5061521;28;40987;-71
2023/12/13 12:27:32;;;;;;;7.05;4.60;;;;;;;;;;5048078;28;42182;-70
2023/12/13 12:30:03;;;;;;;13.85;12.48;;;;;;;;;;5068957;28;40581;-70
2023/12/13 12:32:31;;;;;;;8.95;8.05;;;;;;;;;;5067529;28;41285;-70
2023/12/13 12:34:59;;;;;;;12.50;11.40;;;;;;;;;;5058549;28;41759;-70
2023/12/13 12:37:28;;;;;;;13.75;12.55;;;;;;;;;;5063883;28;41089;-71
2023/12/13 12:39:56;;;;;;;12.52;11.07;;;;;;;;;;5049083;28;42136;-70
2023/12/13 12:42:25;;;;;;;12.20;11.10;;;;;;;;;;5066003;28;42105;-70
2023/12/13 12:44:53;;;;;;;10.50;9.50;;;;;;;;;;5062767;28;41863;-70
2023/12/13 12:47:21;;;;;;;11.23;9.85;;;;;;;;;;5064727;28;43278;-70
2023/12/13 12:49:49;;;;;;;11.25;8.35;;;;;;;;;;5060488;28;40040;-70
2023/12/13 12:52:18;;;;;;;9.90;8.13;;;;;;;;;;5061283;28;40856;-71
2023/12/13 12:54:48;;;;;;;7.30;6.60;;;;;;;;;;5066320;28;41996;-71
2023/12/13 12:57:17;;;;;;;8.50;6.70;;;;;;;;;;5067401;28;39554;-71
2023/12/13 12:59:45;;;;;;;8.15;5.78;;;;;;;;;;5064925;28;42038;-71
2023/12/13 13:02:13;;;;;;;7.82;6.30;;;;;;;;;;5066713;28;41730;-70
2023/12/13 13:04:41;;;;;;;10.20;5.93;;;;;;;;;;5064850;28;42248;-71
2023/12/13 13:07:09;;;;;;;7.15;4.75;;;;;;;;;;5078658;28;42095;-71
2023/12/13 13:09:37;;;;;;;11.23;5.85;;;;;;;;;;5065348;28;41382;-71
2023/12/13 13:12:06;;;;;;;7.45;5.05;;;;;;;;;;5068745;28;41468;-71
2023/12/13 13:14:34;;;;;;;7.60;5.65;;;;;;;;;;5070748;28;42033;-72
2023/12/13 13:17:02;;;;;;;6.78;4.88;;;;;;;;;;5069078;28;39671;-70
2023/12/13 13:19:30;;;;;;;10.52;5.05;;;;;;;;;;5050958;28;40987;-71
2023/12/13 13:21:58;;;;;;;8.80;4.30;;;;;;;;;;5068125;28;42566;-70
2023/12/13 13:24:37;;;;;;;5.13;4.20;;;;;;;;;;5064075;28;40652;-70
2023/12/13 13:27:07;;;;;;;6.68;3.80;;;;;;;;;;5070353;28;41993;-70
2023/12/13 13:29:45;;;;;;;5.40;3.85;;;;;;;;;;5054262;28;41111;-71
2023/12/13 13:32:13;;;;;;;8.32;3.75;;;;;;;;;;5055597;28;42520;-70
2023/12/13 13:34:41;;;;;;;5.60;3.60;;;;;;;;;;5066875;28;42730;-72
2023/12/13 13:37:09;;;;;;;5.05;3.72;;;;;;;;;;5070314;28;40270;-71
2023/12/13 13:39:37;;;;;;;6.03;3.45;;;;;;;;;;5058712;28;41565;-70
2023/12/13 13:42:05;;;;;;;5.20;3.83;;;;;;;;;;5068443;28;42244;-71
2023/12/13 13:44:38;;;;;;;4.95;3.30;;;;;;;;;;5062107;28;41061;-71
2023/12/13 13:47:06;;;;;;;8.27;3.25;;;;;;;;;;5064967;28;42399;-69
2023/12/13 13:49:34;;;;;;;6.10;3.15;;;;;;;;;;5059087;28;32578;-71
2023/12/13 13:52:02;;;;;;;6.53;3.40;;;;;;;;;;5057505;28;41681;-71
2023/12/13 13:54:30;;;;;;;5.30;3.08;;;;;;;;;;5067555;28;41625;-71
2023/12/13 13:56:58;;;;;;;4.75;2.95;;;;;;;;;;5045560;28;39080;-69
2023/12/13 13:59:26;;;;;;;5.15;2.72;;;;;;;;;;5060820;28;42694;-70
2023/12/13 14:01:55;;;;;;;3.97;2.67;;;;;;;;;;5060681;28;41875;-69
2023/12/13 14:04:23;;;;;;;5.15;2.47;;;;;;;;;;5067535;28;40361;-68
2023/12/13 14:06:51;;;;;;;7.80;2.90;;;;;;;;;;5063138;28;41855;-69
2023/12/13 14:09:19;;;;;;;2.88;2.28;;;;;;;;;;5056368;28;43027;-69
2023/12/13 14:11:47;;;;;;;9.13;2.60;;;;;;;;;;5054594;28;42630;-68
2023/12/13 14:14:15;;;;;;;5.22;2.20;;;;;;;;;;5078038;28;41670;-69
2023/12/13 14:16:43;;;;;;;6.50;2.00;;;;;;;;;;5081078;28;40852;-68
2023/12/13 14:19:12;;;;;;;5.68;2.30;;;;;;;;;;5069190;28;42024;-67
2023/12/13 14:21:40;;;;;;;3.33;2.00;;;;;;;;;;5078539;28;42184;-67
2023/12/13 14:24:08;;;;;;;3.80;2.30;;;;;;;;;;5063050;28;39613;-67
2023/12/13 14:26:36;;;;;;;2.30;1.80;;;;;;;;;;5079069;28;41316;-67
2023/12/13 14:29:04;;;;;;;2.65;1.90;;;;;;;;;;5066774;28;42452;-67
2023/12/13 14:31:32;;;;;;;4.47;2.20;;;;;;;;;;5063453;28;40349;-67
2023/12/13 14:34:00;;;;;;;4.25;1.80;;;;;;;;;;5064628;28;42089;-66
2023/12/13 14:36:29;;;;;;;3.58;2.20;;;;;;;;;;5057137;28;40396;-66
2023/12/13 14:38:57;;;;;;;3.40;1.83;;;;;;;;;;5043833;28;40992;-68
2023/12/13 14:41:26;;;;;;;5.88;1.75;;;;;;;;;;5056123;28;42213;-68
2023/12/13 14:43:54;;;;;;;2.95;1.60;;;;;;;;;;5060301;28;42272;-69
2023/12/13 14:46:22;;;;;;;2.55;1.50;;;;;;;;;;5068453;28;42210;-68
2023/12/13 14:48:51;;;;;;;3.97;2.05;;;;;;;;;;5063250;28;42302;-68
2023/12/13 14:51:19;;;;;;;6.22;2.28;;;;;;;;;;5059465;28;40117;-68